sensor_id;sensor_type;location;lat;lon;timestamp;pressure;altitude;pressure_sealevel;temperature;humidity
57610;BME280;43435;46.186;9.024;2023-11-21T11:43:24;97717.00;;;12.14;50.89
57610;BME280;43435;46.186;9.024;2023-11-21T11:45:49;97710.91;;;12.53;42.75
57610;BME280;43435;46.186;9.024;2023-11-21T11:48:18;97701.81;;;13.35;37.07
57610;BME280;43435;46.186;9.024;2023-11-21T11:51:04;97704.69;;;13.45;37.10
57610;BME280;43435;46.186;9.024;2023-11-21T11:53:32;97713.22;;;13.76;35.94
57610;BME280;43435;46.186;9.024;2023-11-21T11:58:42;97707.22;;;13.86;35.89
57610;BME280;43435;46.186;9.024;2023-11-21T12:01:07;97706.72;;;14.06;36.17
57610;BME280;43435;46.186;9.024;2023-11-21T12:03:32;97697.97;;;14.10;34.31
57610;BME280;43435;46.186;9.024;2023-11-21T12:05:58;97682.97;;;14.31;32.87
57610;BME280;43435;46.186;9.024;2023-11-21T12:08:23;97688.63;;;14.35;33.32
57610;BME280;43435;46.186;9.024;2023-11-21T12:10:56;97684.56;;;14.32;32.95
57610;BME280;43435;46.186;9.024;2023-11-21T12:13:22;97692.94;;;14.53;31.00
57610;BME280;43435;46.186;9.024;2023-11-21T12:15:48;97679.22;;;14.71;32.65
57610;BME280;43435;46.186;9.024;2023-11-21T12:18:13;97674.28;;;14.63;33.48
57610;BME280;43435;46.186;9.024;2023-11-21T12:20:39;97680.72;;;14.62;34.91
57610;BME280;43435;46.186;9.024;2023-11-21T12:23:06;97689.88;;;14.66;37.34
57610;BME280;43435;46.186;9.024;2023-11-21T12:25:31;97677.03;;;14.68;36.14
57610;BME280;43435;46.186;9.024;2023-11-21T12:27:57;97686.88;;;14.84;35.66
57610;BME280;43435;46.186;9.024;2023-11-21T12:30:27;97703.81;;;14.85;36.94
57610;BME280;43435;46.186;9.024;2023-11-21T12:32:55;97687.06;;;15.00;33.49
57610;BME280;43435;46.186;9.024;2023-11-21T12:35:21;97681.69;;;15.00;34.17
57610;BME280;43435;46.186;9.024;2023-11-21T12:37:47;97700.59;;;15.10;34.62
57610;BME280;43435;46.186;9.024;2023-11-21T12:40:13;97685.59;;;15.14;33.08
57610;BME280;43435;46.186;9.024;2023-11-21T12:42:41;97674.41;;;15.22;33.35
57610;BME280;43435;46.186;9.024;2023-11-21T12:45:25;97706.06;;;15.20;32.30
57610;BME280;43435;46.186;9.024;2023-11-21T12:47:51;97690.50;;;15.22;31.43
57610;BME280;43435;46.186;9.024;2023-11-21T12:50:20;97678.59;;;15.13;31.42
57610;BME280;43435;46.186;9.024;2023-11-21T12:52:48;97703.31;;;15.15;31.02
57610;BME280;43435;46.186;9.024;2023-11-21T12:55:18;97699.34;;;15.17;30.51
57610;BME280;43435;46.186;9.024;2023-11-21T12:57:44;97690.44;;;15.17;30.20
57610;BME280;43435;46.186;9.024;2023-11-21T13:00:10;97688.03;;;15.15;30.42
57610;BME280;43435;46.186;9.024;2023-11-21T13:02:41;97685.59;;;15.14;30.45
57610;BME280;43435;46.186;9.024;2023-11-21T13:05:07;97690.56;;;15.27;29.72
57610;BME280;43435;46.186;9.024;2023-11-21T13:07:44;97703.44;;;15.25;30.12
57610;BME280;43435;46.186;9.024;2023-11-21T13:10:12;97718.22;;;15.28;29.87
57610;BME280;43435;46.186;9.024;2023-11-21T13:12:42;97702.16;;;15.33;29.54
57610;BME280;43435;46.186;9.024;2023-11-21T13:15:07;97722.31;;;15.35;30.01
57610;BME280;43435;46.186;9.024;2023-11-21T13:17:33;97727.97;;;15.34;29.71
57610;BME280;43435;46.186;9.024;2023-11-21T13:19:58;97692.22;;;15.33;29.76
57610;BME280;43435;46.186;9.024;2023-11-21T13:22:23;97711.06;;;15.38;30.11
57610;BME280;43435;46.186;9.024;2023-11-21T13:24:50;97728.75;;;15.34;30.04
57610;BME280;43435;46.186;9.024;2023-11-21T13:27:15;97733.63;;;15.37;29.97
57610;BME280;43435;46.186;9.024;2023-11-21T13:29:40;97724.81;;;15.42;29.29
57610;BME280;43435;46.186;9.024;2023-11-21T13:32:05;97700.69;;;15.47;29.06
57610;BME280;43435;46.186;9.024;2023-11-21T13:34:31;97738.31;;;15.47;29.11
57610;BME280;43435;46.186;9.024;2023-11-21T13:36:57;97738.03;;;15.49;29.65
57610;BME280;43435;46.186;9.024;2023-11-21T13:39:25;97756.97;;;15.59;29.42
57610;BME280;43435;46.186;9.024;2023-11-21T13:41:53;97762.84;;;15.56;29.55
57610;BME280;43435;46.186;9.024;2023-11-21T13:44:19;97726.09;;;15.61;29.01
57610;BME280;43435;46.186;9.024;2023-11-21T13:47:01;97758.72;;;15.70;28.67
57610;BME280;43435;46.186;9.024;2023-11-21T13:49:26;97756.56;;;15.72;28.66
57610;BME280;43435;46.186;9.024;2023-11-21T13:51:52;97740.69;;;15.70;28.61
57610;BME280;43435;46.186;9.024;2023-11-21T13:54:20;97747.19;;;15.75;28.69
57610;BME280;43435;46.186;9.024;2023-11-21T13:56:49;97793.78;;;15.85;28.83
57610;BME280;43435;46.186;9.024;2023-11-21T13:59:15;97742.69;;;15.80;28.44
57610;BME280;43435;46.186;9.024;2023-11-21T14:01:46;97735.13;;;15.77;28.23
57610;BME280;43435;46.186;9.024;2023-11-21T14:04:22;97752.66;;;15.85;28.30
57610;BME280;43435;46.186;9.024;2023-11-21T14:07:04;97744.38;;;15.91;28.31
57610;BME280;43435;46.186;9.024;2023-11-21T14:09:45;97772.59;;;15.89;28.40
57610;BME280;43435;46.186;9.024;2023-11-21T14:12:10;97747.63;;;15.93;28.25
57610;BME280;43435;46.186;9.024;2023-11-21T14:14:38;97755.66;;;15.88;28.09
57610;BME280;43435;46.186;9.024;2023-11-21T14:17:04;97738.72;;;15.88;27.98
57610;BME280;43435;46.186;9.024;2023-11-21T14:19:32;97764.78;;;15.87;28.16
57610;BME280;43435;46.186;9.024;2023-11-21T14:21:58;97771.28;;;15.91;27.84
57610;BME280;43435;46.186;9.024;2023-11-21T14:24:23;97765.09;;;15.91;27.64
57610;BME280;43435;46.186;9.024;2023-11-21T14:26:49;97753.34;;;16.02;27.09
57610;BME280;43435;46.186;9.024;2023-11-21T14:29:16;97785.84;;;16.01;27.39
57610;BME280;43435;46.186;9.024;2023-11-21T14:31:44;97769.50;;;16.07;27.21
57610;BME280;43435;46.186;9.024;2023-11-21T14:34:10;97781.94;;;16.13;26.94
57610;BME280;43435;46.186;9.024;2023-11-21T14:36:37;97791.91;;;16.13;27.42
57610;BME280;43435;46.186;9.024;2023-11-21T14:39:03;97774.41;;;16.15;27.34
57610;BME280;43435;46.186;9.024;2023-11-21T14:41:32;97772.53;;;16.16;27.25
57610;BME280;43435;46.186;9.024;2023-11-21T14:43:57;97790.81;;;16.14;27.48
57610;BME280;43435;46.186;9.024;2023-11-21T14:46:24;97808.56;;;16.15;27.15
57610;BME280;43435;46.186;9.024;2023-11-21T14:48:50;97783.00;;;16.12;27.30
57610;BME280;43435;46.186;9.024;2023-11-21T14:51:32;97789.22;;;16.18;27.25
57610;BME280;43435;46.186;9.024;2023-11-21T14:54:10;97790.06;;;16.24;27.31
57610;BME280;43435;46.186;9.024;2023-11-21T14:56:37;97800.88;;;16.29;27.04
57610;BME280;43435;46.186;9.024;2023-11-21T14:59:03;97791.50;;;16.31;27.14
57610;BME280;43435;46.186;9.024;2023-11-21T15:01:33;97799.00;;;16.29;26.93
57610;BME280;43435;46.186;9.024;2023-11-21T15:04:09;97801.06;;;16.17;27.47
57610;BME280;43435;46.186;9.024;2023-11-21T15:06:46;97805.28;;;16.08;27.28
57610;BME280;43435;46.186;9.024;2023-11-21T15:09:12;97807.06;;;15.97;27.14
57610;BME280;43435;46.186;9.024;2023-11-21T15:11:37;97808.09;;;15.91;27.14
57610;BME280;43435;46.186;9.024;2023-11-21T15:14:03;97821.06;;;15.72;28.20
57610;BME280;43435;46.186;9.024;2023-11-21T15:16:32;97829.09;;;15.67;27.85
57610;BME280;43435;46.186;9.024;2023-11-21T15:18:57;97819.25;;;15.56;28.39
57610;BME280;43435;46.186;9.024;2023-11-21T15:21:23;97831.97;;;15.38;28.56
57610;BME280;43435;46.186;9.024;2023-11-21T15:23:49;97834.09;;;15.36;28.94
57610;BME280;43435;46.186;9.024;2023-11-21T15:26:15;97840.47;;;15.30;28.98
57610;BME280;43435;46.186;9.024;2023-11-21T15:28:40;97837.66;;;15.20;29.03
57610;BME280;43435;46.186;9.024;2023-11-21T15:31:05;97840.53;;;15.13;29.20
57610;BME280;43435;46.186;9.024;2023-11-21T15:33:32;97852.44;;;15.01;28.92
57610;BME280;43435;46.186;9.024;2023-11-21T15:35:57;97865.59;;;15.02;29.02
57610;BME280;43435;46.186;9.024;2023-11-21T15:38:23;97855.13;;;15.01;29.35
57610;BME280;43435;46.186;9.024;2023-11-21T15:40:49;97864.34;;;14.88;29.51
57610;BME280;43435;46.186;9.024;2023-11-21T15:43:15;97873.13;;;14.83;29.35
57610;BME280;43435;46.186;9.024;2023-11-21T15:45:40;97867.69;;;14.78;29.68
57610;BME280;43435;46.186;9.024;2023-11-21T15:48:05;97867.84;;;14.71;29.93
57610;BME280;43435;46.186;9.024;2023-11-21T15:50:31;97876.06;;;14.65;30.11
57610;BME280;43435;46.186;9.024;2023-11-21T15:52:57;97871.69;;;14.59;30.47
57610;BME280;43435;46.186;9.024;2023-11-21T15:55:22;97879.91;;;14.52;30.64
57610;BME280;43435;46.186;9.024;2023-11-21T15:57:48;97872.78;;;14.46;30.98
57610;BME280;43435;46.186;9.024;2023-11-21T16:00:14;97885.31;;;14.40;31.16
57610;BME280;43435;46.186;9.024;2023-11-21T16:02:44;97893.28;;;14.35;30.76
57610;BME280;43435;46.186;9.024;2023-11-21T16:05:10;97905.47;;;14.26;31.48
57610;BME280;43435;46.186;9.024;2023-11-21T16:07:38;97891.94;;;14.21;31.78
57610;BME280;43435;46.186;9.024;2023-11-21T16:10:04;97899.91;;;14.16;32.38
57610;BME280;43435;46.186;9.024;2023-11-21T16:12:31;97907.97;;;14.16;32.04
57610;BME280;43435;46.186;9.024;2023-11-21T16:14:56;97914.84;;;14.12;32.47
57610;BME280;43435;46.186;9.024;2023-11-21T16:17:22;97907.28;;;14.09;31.87
57610;BME280;43435;46.186;9.024;2023-11-21T16:19:47;97929.13;;;14.00;31.79
57610;BME280;43435;46.186;9.024;2023-11-21T16:22:12;97921.94;;;13.89;32.17
57610;BME280;43435;46.186;9.024;2023-11-21T16:24:37;97923.00;;;13.88;32.33
57610;BME280;43435;46.186;9.024;2023-11-21T16:27:03;97935.56;;;13.88;32.48
57610;BME280;43435;46.186;9.024;2023-11-21T16:29:29;97939.78;;;13.84;32.25
57610;BME280;43435;46.186;9.024;2023-11-21T16:31:58;97935.22;;;13.84;31.66
57610;BME280;43435;46.186;9.024;2023-11-21T16:34:25;97944.47;;;13.76;32.28
57610;BME280;43435;46.186;9.024;2023-11-21T16:36:50;97946.59;;;13.74;32.28
57610;BME280;43435;46.186;9.024;2023-11-21T16:39:16;97951.59;;;13.71;32.38
57610;BME280;43435;46.186;9.024;2023-11-21T16:41:44;97966.06;;;13.70;32.05
57610;BME280;43435;46.186;9.024;2023-11-21T16:44:13;97964.75;;;13.72;32.36
57610;BME280;43435;46.186;9.024;2023-11-21T16:46:38;97957.44;;;13.68;32.09
57610;BME280;43435;46.186;9.024;2023-11-21T16:49:04;97972.34;;;13.64;32.39
57610;BME280;43435;46.186;9.024;2023-11-21T16:51:29;97973.63;;;13.61;32.89
57610;BME280;43435;46.186;9.024;2023-11-21T16:53:55;97973.28;;;13.58;32.84
57610;BME280;43435;46.186;9.024;2023-11-21T16:56:20;97983.44;;;13.56;33.30
57610;BME280;43435;46.186;9.024;2023-11-21T16:58:45;97981.78;;;13.54;32.69
57610;BME280;43435;46.186;9.024;2023-11-21T17:01:11;97983.31;;;13.50;33.32
57610;BME280;43435;46.186;9.024;2023-11-21T17:03:36;97992.06;;;13.46;33.58
57610;BME280;43435;46.186;9.024;2023-11-21T17:06:01;97998.69;;;13.43;33.80
57610;BME280;43435;46.186;9.024;2023-11-21T17:08:30;98004.03;;;13.43;33.74
57610;BME280;43435;46.186;9.024;2023-11-21T17:10:56;97997.53;;;13.39;33.98
57610;BME280;43435;46.186;9.024;2023-11-21T17:13:22;98003.84;;;13.33;34.52
57610;BME280;43435;46.186;9.024;2023-11-21T17:15:48;98011.28;;;13.31;34.23
57610;BME280;43435;46.186;9.024;2023-11-21T17:18:13;98015.00;;;13.30;33.80
57610;BME280;43435;46.186;9.024;2023-11-21T17:20:38;98005.91;;;13.31;33.83
57610;BME280;43435;46.186;9.024;2023-11-21T17:23:04;98022.09;;;13.24;34.20
57610;BME280;43435;46.186;9.024;2023-11-21T17:25:30;98026.06;;;13.34;33.73
57610;BME280;43435;46.186;9.024;2023-11-21T17:27:56;98019.56;;;13.29;33.64
57610;BME280;43435;46.186;9.024;2023-11-21T17:30:21;98015.81;;;13.31;32.77
57610;BME280;43435;46.186;9.024;2023-11-21T17:32:47;98018.50;;;13.31;32.89
57610;BME280;43435;46.186;9.024;2023-11-21T17:35:12;98025.72;;;13.30;32.98
57610;BME280;43435;46.186;9.024;2023-11-21T17:37:37;98022.00;;;13.31;32.81
57610;BME280;43435;46.186;9.024;2023-11-21T17:40:02;98017.56;;;13.25;33.20
57610;BME280;43435;46.186;9.024;2023-11-21T17:42:31;98021.28;;;13.24;33.82
57610;BME280;43435;46.186;9.024;2023-11-21T17:44:56;98025.44;;;13.20;33.89
57610;BME280;43435;46.186;9.024;2023-11-21T17:47:21;98034.75;;;13.17;34.22
57610;BME280;43435;46.186;9.024;2023-11-21T17:49:50;98033.94;;;13.17;34.49
57610;BME280;43435;46.186;9.024;2023-11-21T17:52:15;98030.09;;;13.13;34.41
57610;BME280;43435;46.186;9.024;2023-11-21T17:54:40;98035.91;;;13.10;34.86
57610;BME280;43435;46.186;9.024;2023-11-21T17:57:06;98029.75;;;13.09;34.94
57610;BME280;43435;46.186;9.024;2023-11-21T17:59:33;98031.00;;;13.06;34.81
57610;BME280;43435;46.186;9.024;2023-11-21T18:01:59;98034.75;;;13.05;35.54
57610;BME280;43435;46.186;9.024;2023-11-21T18:04:24;98047.06;;;13.06;35.50
57610;BME280;43435;46.186;9.024;2023-11-21T18:06:49;98042.41;;;13.02;35.47
57610;BME280;43435;46.186;9.024;2023-11-21T18:09:14;98035.09;;;12.97;35.36
57610;BME280;43435;46.186;9.024;2023-11-21T18:11:40;98036.13;;;12.96;35.29
57610;BME280;43435;46.186;9.024;2023-11-21T18:14:06;98046.25;;;12.94;35.88
57610;BME280;43435;46.186;9.024;2023-11-21T18:16:34;98038.66;;;12.91;35.56
57610;BME280;43435;46.186;9.024;2023-11-21T18:18:59;98042.97;;;12.92;35.29
57610;BME280;43435;46.186;9.024;2023-11-21T18:21:24;98050.78;;;12.94;35.21
57610;BME280;43435;46.186;9.024;2023-11-21T18:23:49;98041.13;;;12.93;34.53
57610;BME280;43435;46.186;9.024;2023-11-21T18:26:17;98042.75;;;12.94;34.94
57610;BME280;43435;46.186;9.024;2023-11-21T18:28:43;98045.19;;;12.95;34.80
57610;BME280;43435;46.186;9.024;2023-11-21T18:31:08;98045.19;;;12.95;34.66
57610;BME280;43435;46.186;9.024;2023-11-21T18:33:33;98042.66;;;13.00;35.07
57610;BME280;43435;46.186;9.024;2023-11-21T18:35:59;98053.22;;;12.95;34.82
57610;BME280;43435;46.186;9.024;2023-11-21T18:38:25;98053.22;;;12.95;35.15
57610;BME280;43435;46.186;9.024;2023-11-21T18:40:50;98046.84;;;12.96;35.35
57610;BME280;43435;46.186;9.024;2023-11-21T18:48:26;98056.03;;;13.00;34.00
57610;BME280;43435;46.186;9.024;2023-11-21T18:50:51;98063.81;;;13.02;33.90
57610;BME280;43435;46.186;9.024;2023-11-21T18:53:19;98066.50;;;13.02;33.83
57610;BME280;43435;46.186;9.024;2023-11-21T18:55:45;98068.97;;;13.03;33.75
57610;BME280;43435;46.186;9.024;2023-11-21T18:58:11;98074.88;;;13.05;33.58
57610;BME280;43435;46.186;9.024;2023-11-21T19:00:36;98076.75;;;13.05;33.51
57610;BME280;43435;46.186;9.024;2023-11-21T19:03:02;98082.09;;;13.05;33.76
57610;BME280;43435;46.186;9.024;2023-11-21T19:05:27;98090.50;;;13.09;33.63
57610;BME280;43435;46.186;9.024;2023-11-21T19:07:53;98097.47;;;13.10;33.72
57610;BME280;43435;46.186;9.024;2023-11-21T19:10:18;98091.31;;;13.09;33.98
57610;BME280;43435;46.186;9.024;2023-11-21T19:12:44;98097.91;;;13.06;34.07
57610;BME280;43435;46.186;9.024;2023-11-21T19:15:09;98092.56;;;13.06;33.73
57610;BME280;43435;46.186;9.024;2023-11-21T19:17:35;98093.63;;;13.05;34.02
57610;BME280;43435;46.186;9.024;2023-11-21T19:20:00;98112.59;;;13.04;34.24
57610;BME280;43435;46.186;9.024;2023-11-21T19:22:26;98109.13;;;13.03;33.60
57610;BME280;43435;46.186;9.024;2023-11-21T19:24:52;98112.25;;;13.00;33.89
57610;BME280;43435;46.186;9.024;2023-11-21T19:27:17;98107.81;;;13.06;33.36
57610;BME280;43435;46.186;9.024;2023-11-21T19:29:42;98115.28;;;13.04;33.79
57610;BME280;43435;46.186;9.024;2023-11-21T19:32:07;98118.16;;;13.02;33.74
57610;BME280;43435;46.186;9.024;2023-11-21T19:34:33;98115.28;;;13.04;34.01
57610;BME280;43435;46.186;9.024;2023-11-21T19:36:58;98113.06;;;13.01;34.60
57610;BME280;43435;46.186;9.024;2023-11-21T19:39:23;98120.84;;;13.02;34.30
57610;BME280;43435;46.186;9.024;2023-11-21T19:41:48;98119.09;;;12.96;34.65
57610;BME280;43435;46.186;9.024;2023-11-21T19:44:13;98124.66;;;12.95;34.49
57610;BME280;43435;46.186;9.024;2023-11-21T19:46:39;98128.59;;;12.92;34.60
57610;BME280;43435;46.186;9.024;2023-11-21T19:49:04;98126.41;;;12.89;34.58
57610;BME280;43435;46.186;9.024;2023-11-21T19:51:33;98119.75;;;12.92;34.70
57610;BME280;43435;46.186;9.024;2023-11-21T19:53:58;98126.41;;;12.89;34.79
57610;BME280;43435;46.186;9.024;2023-11-21T19:56:24;98126.97;;;12.91;34.76
57610;BME280;43435;46.186;9.024;2023-11-21T19:58:49;98124.75;;;12.88;35.22
57610;BME280;43435;46.186;9.024;2023-11-21T20:01:15;98119.03;;;12.85;35.16
57610;BME280;43435;46.186;9.024;2023-11-21T20:03:40;98134.28;;;12.84;35.15
57610;BME280;43435;46.186;9.024;2023-11-21T20:34:32;98164.84;;;12.76;35.06
57610;BME280;43435;46.186;9.024;2023-11-21T20:36:57;98150.22;;;12.79;34.59
57610;BME280;43435;46.186;9.024;2023-11-21T20:39:23;98165.44;;;12.78;34.65
57610;BME280;43435;46.186;9.024;2023-11-21T20:41:48;98163.59;;;12.79;34.87
57610;BME280;43435;46.186;9.024;2023-11-21T20:44:13;98172.19;;;12.81;34.72
57610;BME280;43435;46.186;9.024;2023-11-21T20:46:42;98174.72;;;12.76;35.23
57610;BME280;43435;46.186;9.024;2023-11-21T20:49:11;98178.66;;;12.73;34.98
57610;BME280;43435;46.186;9.024;2023-11-21T20:51:37;98173.91;;;12.75;34.65
57610;BME280;43435;46.186;9.024;2023-11-21T20:54:02;98176.34;;;12.77;34.65
57610;BME280;43435;46.186;9.024;2023-11-21T20:56:29;98167.75;;;12.75;35.04
57610;BME280;43435;46.186;9.024;2023-11-21T20:58:54;98176.34;;;12.77;34.91
57610;BME280;43435;46.186;9.024;2023-11-21T21:01:20;98176.34;;;12.77;34.84
57610;BME280;43435;46.186;9.024;2023-11-21T21:03:45;98179.03;;;12.77;34.86
57610;BME280;43435;46.186;9.024;2023-11-21T21:06:11;98175.47;;;12.83;34.50
57610;BME280;43435;46.186;9.024;2023-11-21T21:08:36;98175.09;;;12.79;34.70
57610;BME280;43435;46.186;9.024;2023-11-21T21:11:02;98186.47;;;12.75;34.60
57610;BME280;43435;46.186;9.024;2023-11-21T21:13:30;98187.06;;;12.77;34.90
57610;BME280;43435;46.186;9.024;2023-11-21T21:15:55;98187.50;;;12.74;35.25
57610;BME280;43435;46.186;9.024;2023-11-21T21:18:21;98186.31;;;12.70;35.06
57610;BME280;43435;46.186;9.024;2023-11-21T21:20:46;98177.34;;;12.64;35.58
57610;BME280;43435;46.186;9.024;2023-11-21T21:23:12;98181.09;;;12.63;36.23
57610;BME280;43435;46.186;9.024;2023-11-21T21:25:38;98178.63;;;12.62;35.97
57610;BME280;43435;46.186;9.024;2023-11-21T21:28:04;98182.91;;;12.63;35.98
57610;BME280;43435;46.186;9.024;2023-11-21T21:30:30;98181.09;;;12.63;35.84
57610;BME280;43435;46.186;9.024;2023-11-21T21:32:55;98182.72;;;12.64;35.98
57610;BME280;43435;46.186;9.024;2023-11-21T21:35:25;98181.09;;;12.63;36.12
57610;BME280;43435;46.186;9.024;2023-11-21T21:37:53;98184.56;;;12.64;36.21
